Time;durP1;ratioP1;P1;durP2;ratioP2;P2;SDS_P1;SDS_P2;PMS_P1;PMS_P2;Temp;Humidity;BMP_temperature;BMP_pressure;BME280_temperature;BME280_humidity;BME280_pressure;Samples;Min_cycle;Max_cycle;Signal;HPM_P1;HPM_P2
2021/10/02 00:46:37;;;;;;;22.00;15.30;;;;;;;9.29;77.97;100738.98;114553;1195;137216;-72
2021/10/02 00:54:54;;;;;;;21.90;16.70;;;;;;;9.34;78.24;100734.71;113999;1202;93310;-72
2021/10/02 01:03:32;;;;;;;20.00;15.40;;;;;;;9.41;78.21;100727.45;113579;1207;110247;-72
2021/10/02 01:13:15;;;;;;;21.60;15.20;;;;;;;9.46;78.16;100715.55;113430;1209;138422;-72
2021/10/02 01:17:31;;;;;;;20.10;15.30;;;;;;;9.50;78.19;100711.30;111665;1203;635622;-72
2021/10/02 01:22:08;;;;;;;22.70;16.00;;;;;;;9.52;78.23;100707.98;112908;1196;94103;-73
2021/10/02 01:26:17;;;;;;;26.50;17.50;;;;;;;9.54;78.23;100706.02;114284;1196;136648;-73
2021/10/02 01:34:26;;;;;;;26.60;17.40;;;;;;;9.55;78.05;100701.84;114233;1201;108789;-73
2021/10/02 01:51:10;;;;;;;30.90;21.20;;;;;;;9.43;78.41;100680.91;114177;1200;107829;-73
2021/10/02 01:54:48;;;;;;;;;;;;;;;;;;;;;
2021/10/02 02:03:21;;;;;;;;;;;;;;;;;;;;;
2021/10/02 02:07:27;;;;;;;;;;;;;;;;;;;;;
2021/10/02 02:11:36;;;;;;;41.60;25.40;;;;;;;9.28;79.48;100672.52;112782;1200;94154;-72
2021/10/02 02:40:32;;;;;;;;;;;;;;;;;;;;;
2021/10/02 03:01:24;;;;;;;38.90;23.20;;;;;;;9.25;80.89;100634.40;112560;1203;108482;-72
2021/10/02 03:05:46;;;;;;;;;;;;;;;;;;;;;
2021/10/02 03:10:10;;;;;;;35.10;21.30;;;;;;;9.18;80.99;100634.58;112411;1203;138368;-73
2021/10/02 03:13:52;;;;;;;33.00;21.60;;;;;;;9.15;81.11;100637.40;112452;1205;94123;-72
2021/10/02 03:22:44;;;;;;;30.30;19.90;;;;;;;9.03;81.53;100632.79;111796;1209;137435;-72
2021/10/02 03:26:19;;;;;;;;;;;;;;;;;;;;;
2021/10/02 03:43:33;;;;;;;36.10;18.90;;;;;;;8.92;82.66;100620.85;111619;1216;109534;-73
2021/10/02 03:51:25;;;;;;;29.40;16.70;;;;;;;8.86;82.78;100625.67;111664;1208;635250;-72
2021/10/02 03:55:16;;;;;;;26.80;17.40;;;;;;;8.84;82.80;100622.58;112996;1198;94041;-73
2021/10/02 03:59:24;;;;;;;24.00;16.90;;;;;;;8.85;82.97;100618.23;112844;1195;137447;-71
2021/10/02 04:03:18;;;;;;;41.50;17.60;;;;;;;8.86;83.30;100619.59;112676;1201;107563;-71
2021/10/02 04:11:33;;;;;;;26.00;17.10;;;;;;;8.80;83.64;100620.55;112006;1205;137678;-70
2021/10/02 04:15:34;;;;;;;;;;;;;;;;;;;;;
2021/10/02 04:23:37;;;;;;;;;;;;;;;;;;;;;
2021/10/02 04:27:49;;;;;;;31.30;15.30;;;;;;;8.71;84.77;100630.61;112948;1197;94257;-72
2021/10/02 04:31:57;;;;;;;28.20;15.20;;;;;;;8.72;84.66;100629.38;114321;1196;137233;-72
2021/10/02 04:36:07;;;;;;;22.50;14.20;;;;;;;8.73;84.79;100626.07;114045;1200;137203;-72
2021/10/02 04:40:20;;;;;;;23.60;14.90;;;;;;;8.71;84.78;100622.63;113786;1203;108750;-73
2021/10/02 04:44:20;;;;;;;;;;;;;;;;;;;;;
2021/10/02 04:48:24;;;;;;;;;;;;;;;;;;;;;
2021/10/02 04:56:20;;;;;;;30.60;16.90;;;;;;;8.79;84.94;100608.95;111501;1209;638177;-73
2021/10/02 05:00:29;;;;;;;;;;;;;;;;;;;;;
2021/10/02 05:04:27;;;;;;;29.80;16.00;;;;;;;8.83;85.29;100610.80;112310;1205;94150;-72
2021/10/02 05:08:25;;;;;;;24.80;16.20;;;;;;;8.85;85.34;100601.93;111807;1209;137327;-73
2021/10/02 05:12:33;;;;;;;40.70;16.40;;;;;;;8.87;85.57;100602.76;111643;1212;137616;-73
2021/10/02 05:17:15;;;;;;;23.60;15.30;;;;;;;8.86;85.54;100585.78;111606;1218;107544;-73
2021/10/02 05:21:18;;;;;;;26.80;16.00;;;;;;;8.89;86.07;100583.11;112376;1222;92567;-73
2021/10/02 05:25:29;;;;;;;31.50;16.30;;;;;;;8.88;86.40;100581.22;112257;1222;137616;-73
2021/10/02 05:33:03;;;;;;;27.10;16.40;;;;;;;9.01;85.63;100580.26;111458;1212;639128;-73
2021/10/02 05:37:10;;;;;;;27.00;16.10;;;;;;;9.09;85.56;100591.54;112381;1203;136834;-72
2021/10/02 05:41:06;;;;;;;;;;;;;;;;;;;;;
2021/10/02 05:50:11;;;;;;;29.40;16.10;;;;;;;9.12;85.48;100585.05;111354;1219;138137;-73
2021/10/02 05:54:41;;;;;;;34.40;18.40;;;;;;;9.20;85.32;100579.88;111581;1209;640011;-73
2021/10/02 05:58:31;;;;;;;26.30;16.40;;;;;;;9.23;85.52;100582.77;114136;1200;92568;-73
2021/10/02 06:02:39;;;;;;;28.60;16.20;;;;;;;9.22;85.59;100586.23;113531;1206;137513;-73
2021/10/02 06:10:55;;;;;;;31.00;18.60;;;;;;;9.25;85.59;100584.98;113433;1209;108794;-74
2021/10/02 06:14:39;;;;;;;;;;;;;;;;;;;;;
2021/10/02 06:19:13;;;;;;;31.20;17.60;;;;;;;9.33;85.32;100578.89;113187;1212;92561;-73
2021/10/02 06:27:29;;;;;;;29.80;17.60;;;;;;;9.43;85.22;100580.91;112084;1224;137994;-74
2021/10/02 06:31:36;;;;;;;29.60;17.90;;;;;;;9.47;85.31;100583.96;111404;1212;636581;-70
2021/10/02 06:40:19;;;;;;;31.10;18.80;;;;;;;9.56;84.84;100571.45;112131;1206;137471;-68
2021/10/02 06:43:52;;;;;;;26.90;17.50;;;;;;;9.58;84.69;100575.74;111943;1209;108507;-69
2021/10/02 06:52:37;;;;;;;30.50;17.50;;;;;;;9.67;84.64;100585.39;111346;1216;137665;-72
2021/10/02 07:08:05;;;;;;;31.40;19.30;;;;;;;9.86;84.48;100591.39;111471;1209;636136;-70
2021/10/02 07:12:04;;;;;;;;;;;;;;;;;;;;;
2021/10/02 07:20:03;;;;;;;30.00;17.00;;;;;;;9.90;84.24;100601.75;113821;1204;108394;-72
2021/10/02 07:23:53;;;;;;;27.10;17.10;;;;;;;9.91;83.96;100599.97;113364;1207;137913;-68
2021/10/02 07:32:23;;;;;;;29.80;18.10;;;;;;;9.99;84.28;100610.20;113066;1214;93258;-69
2021/10/02 07:36:53;;;;;;;32.80;18.00;;;;;;;10.05;83.84;100600.84;112437;1218;137331;-68
2021/10/02 07:44:23;;;;;;;31.90;18.90;;;;;;;10.28;83.54;100576.84;111471;1210;636155;-68
2021/10/02 07:52:39;;;;;;;29.60;17.50;;;;;;;10.37;82.94;100580.09;113637;1206;138091;-68
2021/10/02 07:56:37;;;;;;;30.70;17.60;;;;;;;10.45;82.99;100576.08;113596;1206;108813;-69
2021/10/02 08:00:37;;;;;;;;;;;;;;;;;;;;;
2021/10/02 08:04:29;;;;;;;;;;;;;;;;;;;;;
2021/10/02 08:12:28;;;;;;;26.10;17.00;;;;;;;10.67;82.23;100573.21;112689;1217;137602;-67
2021/10/02 08:16:44;;;;;;;29.50;17.70;;;;;;;10.75;82.13;100575.41;112877;1217;109382;-66
2021/10/02 08:24:42;;;;;;;30.50;17.30;;;;;;;10.89;81.63;100570.65;112075;1222;137679;-66
2021/10/02 08:28:33;;;;;;;;;;;;;;;;;;;;;
2021/10/02 08:32:20;;;;;;;;;;;;;;;;;;;;;
2021/10/02 08:36:44;;;;;;;24.10;15.40;;;;;;;11.04;80.94;100561.72;111957;1222;137368;-66
2021/10/02 08:40:49;;;;;;;32.60;17.30;;;;;;;11.13;80.84;100557.27;112300;1221;109658;-66
2021/10/02 08:44:31;;;;;;;26.40;16.40;;;;;;;11.20;80.55;100556.55;112408;1221;109588;-66
2021/10/02 08:52:56;;;;;;;26.80;16.40;;;;;;;11.34;80.15;100555.61;111521;1209;635647;-69
2021/10/02 08:57:05;;;;;;;23.70;17.10;;;;;;;11.34;79.80;100562.77;112929;1196;94145;-67
2021/10/02 09:01:12;;;;;;;29.00;17.70;;;;;;;11.41;79.82;100558.67;112362;1203;136971;-67
2021/10/02 09:05:21;;;;;;;25.70;16.10;;;;;;;11.52;79.58;100558.20;112459;1203;107874;-67
2021/10/02 09:18:20;;;;;;;26.30;18.20;;;;;;;11.82;78.95;100533.58;113525;1206;92560;-68
2021/10/02 09:26:11;;;;;;;25.80;17.30;;;;;;;12.10;78.29;100533.34;113441;1206;138314;-67
2021/10/02 09:30:18;;;;;;;23.80;17.30;;;;;;;12.31;77.61;100539.05;113370;1209;109530;-68
2021/10/02 09:34:13;;;;;;;;;;;;;;;;;;;;;
2021/10/02 09:38:33;;;;;;;22.10;15.50;;;;;;;12.54;76.55;100536.48;113357;1206;139041;-67
2021/10/02 09:42:15;;;;;;;19.50;15.20;;;;;;;12.75;76.13;100526.17;113726;1203;93973;-67
2021/10/02 09:54:49;;;;;;;17.90;14.00;;;;;;;13.30;73.90;100530.04;113651;1205;108414;-67
2021/10/02 09:58:45;;;;;;;20.60;14.50;;;;;;;13.28;73.42;100523.66;113677;1205;93715;-68
2021/10/02 10:11:26;;;;;;;19.90;14.80;;;;;;;13.28;73.93;100517.02;113541;1206;108877;-67
2021/10/02 10:24:10;;;;;;;;;;;;;;;13.15;73.74;100501.08;112644;1200;94102;-67
2021/10/02 10:32:29;;;;;;;17.80;13.50;;;;;;;13.17;73.89;100491.40;113623;1200;108163;-68
2021/10/02 10:36:19;;;;;;;17.50;12.70;;;;;;;13.29;73.78;100484.14;113798;1203;108552;-67
2021/10/02 10:39:57;;;;;;;16.20;12.00;;;;;;;13.77;73.20;100478.16;113639;1203;137515;-68
2021/10/02 10:48:04;;;;;;;;;;;;;;;;;;;;;
2021/10/02 10:52:37;;;;;;;16.30;12.00;;;;;;;15.60;68.68;100458.13;113233;1209;137668;-73
2021/10/02 10:56:06;;;;;;;19.40;12.70;;;;;;;15.65;67.50;100454.91;113163;1212;107732;-70
2021/10/02 11:04:21;;;;;;;15.10;11.30;;;;;;;15.86;67.35;100436.52;112948;1213;139249;-67
2021/10/02 11:08:32;;;;;;;15.30;11.40;;;;;;;15.97;66.87;100437.68;113178;1212;93579;-66
2021/10/02 11:13:10;;;;;;;;;;;;;;;;;;;;;
2021/10/02 11:29:54;;;;;;;;;;;;;;;;;;;;;
2021/10/02 11:34:14;;;;;;;13.40;11.20;;;;;;;17.08;62.17;100433.52;113529;1208;109474;-68
2021/10/02 11:37:53;;;;;;;;;;;;;;;;;;;;;
2021/10/02 11:42:19;;;;;;;;;;;;;;;;;;;;;
2021/10/02 11:46:26;;;;;;;;;;;;;;;;;;;;;
2021/10/02 11:50:51;;;;;;;12.80;10.10;;;;;;;17.18;60.97;100433.65;113126;1214;93340;-68
2021/10/02 11:54:23;;;;;;;15.00;10.10;;;;;;;17.17;61.14;100423.51;112938;1215;137732;-68
2021/10/02 11:59:14;;;;;;;12.60;10.10;;;;;;;17.32;60.98;100422.85;113107;1215;109578;-68
2021/10/02 12:02:40;;;;;;;13.30;10.50;;;;;;;17.35;61.03;100414.22;113128;1212;109525;-69
2021/10/02 12:06:21;;;;;;;13.60;9.60;;;;;;;17.43;60.50;100418.13;113047;1212;137511;-67
2021/10/02 12:18:17;;;;;;;11.40;9.60;;;;;;;17.77;60.55;100397.35;113311;1207;138186;-83
2021/10/02 12:22:31;;;;;;;;;;;;;;;;;;;;;
2021/10/02 12:27:09;;;;;;;12.40;10.20;;;;;;;18.01;59.87;100393.81;111427;1211;657081;-73
2021/10/02 12:31:18;;;;;;;15.20;9.80;;;;;;;17.94;59.67;100391.02;112349;1202;137034;-69
2021/10/02 12:35:14;;;;;;;13.80;10.30;;;;;;;17.87;58.31;100403.44;112256;1206;94877;-69
2021/10/02 12:43:59;;;;;;;13.30;10.20;;;;;;;17.54;59.42;100399.55;111573;1212;137029;-68
2021/10/02 12:48:05;;;;;;;13.30;9.60;;;;;;;17.39;59.74;100393.96;111195;1221;109800;-68
2021/10/02 12:51:44;;;;;;;18.10;10.10;;;;;;;17.31;60.31;100392.83;111972;1224;138229;-67
2021/10/02 13:14:10;;;;;;;11.10;9.50;;;;;;;17.48;59.96;100380.09;110493;1225;94888;-68
2021/10/02 13:18:16;;;;;;;10.90;9.10;;;;;;;17.75;59.64;100381.14;110703;1225;94836;-66
2021/10/02 13:21:27;;;;;;;;;;;;;;;;;;;;;
2021/10/02 13:25:42;;;;;;;11.10;9.00;;;;;;;17.87;58.44;100382.67;111520;1215;109900;-68
2021/10/02 13:29:51;;;;;;;11.70;9.60;;;;;;;17.70;58.43;100383.02;111606;1214;109600;-68
2021/10/02 13:37:43;;;;;;;;;;;;;;;;;;;;;
2021/10/02 13:45:52;;;;;;;;;;;;;;;;;;;;;
2021/10/02 13:50:29;;;;;;;10.40;8.60;;;;;;;17.28;59.84;100369.27;111583;1215;109316;-68
2021/10/02 13:58:43;;;;;;;10.10;8.50;;;;;;;17.52;59.66;100373.84;111190;1218;137322;-69
2021/10/02 14:02:48;;;;;;;12.50;8.10;;;;;;;17.52;59.08;100374.73;110865;1222;110406;-69
2021/10/02 14:10:17;;;;;;;14.40;9.40;;;;;;;17.52;59.56;100367.54;111573;1208;636408;-68
2021/10/02 14:14:16;;;;;;;12.10;8.70;;;;;;;17.51;59.63;100362.61;112506;1203;94753;-68
2021/10/02 14:18:21;;;;;;;;;;;;;;;;;;;;;
2021/10/02 14:26:35;;;;;;;11.70;9.60;;;;;;;17.49;60.10;100366.27;113124;1214;106934;-67
2021/10/02 14:30:05;;;;;;;15.20;10.60;;;;;;;17.42;59.90;100367.05;112983;1214;137626;-67
2021/10/02 14:34:54;;;;;;;14.20;10.00;;;;;;;17.33;60.16;100370.77;112652;1217;137525;-68
2021/10/02 14:37:58;;;;;;;12.90;10.80;;;;;;;17.26;60.40;100374.00;112416;1221;92604;-68
2021/10/02 14:41:31;;;;;;;;;;;;;;;;;;;;;
2021/10/02 14:49:23;;;;;;;;;;;;;;;;;;;;;
2021/10/02 14:58:16;;;;;;;;;;;;;;;;;;;;;
2021/10/02 15:02:05;;;;;;;;;;;;;;;;;;;;;
2021/10/02 15:06:15;;;;;;;15.10;13.50;;;;;;;17.27;58.79;100377.61;114043;1198;136762;-67
2021/10/02 15:10:22;;;;;;;15.40;13.60;;;;;;;17.28;58.62;100383.72;114108;1200;108271;-67
2021/10/02 15:14:22;;;;;;;;;;;;;;;;;;;;;
2021/10/02 15:18:37;;;;;;;19.90;14.30;;;;;;;17.25;58.80;100376.67;113412;1206;137152;-68
2021/10/02 15:23:14;;;;;;;17.70;13.90;;;;;;;17.18;58.85;100376.86;113434;1208;92662;-67
2021/10/02 15:26:15;;;;;;;20.10;14.70;;;;;;;17.08;59.01;100381.32;113328;1209;92525;-68
2021/10/02 15:29:57;;;;;;;17.10;13.80;;;;;;;17.03;59.12;100380.92;113270;1209;136973;-67
2021/10/02 15:38:27;;;;;;;16.20;14.00;;;;;;;16.86;59.56;100387.81;113054;1212;137370;-68
2021/10/02 15:41:55;;;;;;;18.70;12.40;;;;;;;16.76;59.90;100385.23;113032;1209;137790;-68
2021/10/02 15:46:10;;;;;;;;;;;;;;;;;;;;;
2021/10/02 15:54:50;;;;;;;18.70;14.40;;;;;;;16.60;60.77;100380.31;113320;1208;137277;-68
2021/10/02 16:02:33;;;;;;;20.50;14.00;;;;;;;16.41;61.28;100377.29;113039;1212;138095;-69
2021/10/02 16:06:51;;;;;;;;;;;;;;;;;;;;;
2021/10/02 16:10:39;;;;;;;20.90;15.80;;;;;;;16.28;62.73;100373.27;113152;1212;110838;-69
2021/10/02 16:14:52;;;;;;;19.10;13.80;;;;;;;16.19;63.43;100372.71;112966;1212;137300;-70
2021/10/02 16:18:57;;;;;;;16.30;12.70;;;;;;;16.09;64.38;100371.98;112642;1210;138172;-69
2021/10/02 16:26:47;;;;;;;18.40;13.10;;;;;;;15.91;65.32;100371.52;112270;1219;137816;-69
2021/10/02 16:34:52;;;;;;;;;;;;;;;;;;;;;
2021/10/02 16:39:01;;;;;;;;;;;;;;;;;;;;;
2021/10/02 16:55:25;;;;;;;18.80;15.20;;;;;;;15.40;67.10;100378.66;112508;1216;137798;-68
2021/10/02 17:11:07;;;;;;;;;;;;;;;;;;;;;
2021/10/02 17:15:44;;;;;;;17.10;14.20;;;;;;;15.14;67.69;100400.45;112658;1216;137878;-69
2021/10/02 17:19:05;;;;;;;20.00;15.40;;;;;;;15.11;67.96;100397.64;112770;1177;138134;-64
2021/10/02 17:23:41;;;;;;;19.30;14.90;;;;;;;15.07;68.18;100405.18;112730;1195;95354;-69
2021/10/02 17:27:16;;;;;;;18.80;14.70;;;;;;;15.02;68.35;100410.52;112527;1199;137667;-68
2021/10/02 17:31:05;;;;;;;19.80;15.70;;;;;;;14.97;68.36;100408.45;112486;1201;137584;-68
2021/10/02 17:35:14;;;;;;;21.60;15.60;;;;;;;14.91;68.60;100407.73;112738;1201;108800;-69
2021/10/02 17:39:11;;;;;;;;;;;;;;;;;;;;;
2021/10/02 17:43:24;;;;;;;20.90;15.70;;;;;;;14.80;68.86;100409.27;112238;1206;137658;-70
2021/10/02 17:47:58;;;;;;;20.00;14.80;;;;;;;14.74;69.11;100406.59;112441;1207;94863;-70
2021/10/02 18:14:55;;;;;;;;;;;;;;;;;;;;;
2021/10/02 18:19:06;;;;;;;21.30;16.30;;;;;;;14.67;70.85;100406.91;112410;1202;94616;-67
2021/10/02 18:23:41;;;;;;;21.60;16.10;;;;;;;14.63;71.13;100407.60;112431;1203;94063;-66
2021/10/02 18:32:08;;;;;;;24.80;17.40;;;;;;;14.55;71.63;100424.27;111693;1203;108627;-68
2021/10/02 18:35:45;;;;;;;20.40;15.70;;;;;;;14.52;72.06;100429.80;113193;1211;105538;-68
2021/10/02 18:52:58;;;;;;;24.00;17.40;;;;;;;14.31;72.95;100433.71;112369;1218;137898;-68
2021/10/02 18:56:11;;;;;;;;;;;;;;;;;;;;;
2021/10/02 19:00:02;;;;;;;22.00;17.70;;;;;;;14.17;73.34;100431.36;112056;1203;94906;-66
2021/10/02 19:04:11;;;;;;;22.70;18.50;;;;;;;14.11;73.77;100431.80;112204;1203;137251;-66
2021/10/02 19:08:13;;;;;;;24.50;17.50;;;;;;;14.05;73.78;100428.59;112282;1203;109450;-67
2021/10/02 19:12:21;;;;;;;26.50;18.60;;;;;;;13.98;73.77;100431.31;113787;1200;137010;-67
2021/10/02 19:20:31;;;;;;;24.70;18.20;;;;;;;13.88;74.24;100423.87;113434;1208;93313;-66
2021/10/02 19:24:40;;;;;;;25.50;18.80;;;;;;;13.83;74.36;100422.17;113282;1208;137404;-66
2021/10/02 19:29:11;;;;;;;24.10;18.10;;;;;;;13.79;74.74;100423.20;112984;1212;138812;-67
2021/10/02 19:32:51;;;;;;;;;;;;;;;;;;;;;
2021/10/02 19:39:54;;;;;;;23.30;18.60;;;;;;;13.68;75.21;100413.41;112027;1197;94875;-67
2021/10/02 19:52:18;;;;;;;;;;;;;;;;;;;;;
2021/10/02 19:56:19;;;;;;;22.50;16.80;;;;;;;13.54;75.35;100420.77;113163;1212;106607;-67
2021/10/02 20:03:44;;;;;;;21.60;16.20;;;;;;;13.48;75.67;100422.98;112097;1203;94828;-64
2021/10/02 20:06:31;;;;;;;23.00;16.90;;;;;;;13.45;75.78;100410.83;113811;1203;137964;-65
2021/10/02 20:09:19;;;;;;;24.10;17.90;;;;;;;13.44;75.73;100411.92;113876;1203;108562;-65
2021/10/02 20:12:06;;;;;;;24.10;18.10;;;;;;;13.41;75.83;100410.48;113599;1202;137903;-64
2021/10/02 20:14:53;;;;;;;22.70;17.30;;;;;;;13.38;75.94;100413.06;113869;1203;93884;-65
2021/10/02 20:17:40;;;;;;;23.80;17.70;;;;;;;13.37;75.90;100410.48;113927;1203;92935;-69
2021/10/02 20:20:26;;;;;;;25.20;17.70;;;;;;;13.35;76.23;100408.14;113360;1203;137014;-66
2021/10/02 20:23:13;;;;;;;22.30;16.80;;;;;;;13.30;75.95;100406.75;113904;1203;108581;-66
2021/10/02 20:25:59;;;;;;;24.30;16.60;;;;;;;13.28;76.01;100405.79;113374;1202;137874;-65
2021/10/02 20:28:46;;;;;;;25.70;18.40;;;;;;;13.26;76.03;100404.10;112474;1203;95218;-67
2021/10/02 20:31:33;;;;;;;22.60;16.80;;;;;;;13.23;76.12;100408.06;112420;1203;137517;-66
2021/10/02 20:34:21;;;;;;;22.80;17.10;;;;;;;13.20;76.19;100413.95;112515;1202;109884;-67
2021/10/02 20:37:08;;;;;;;21.70;17.80;;;;;;;13.17;76.35;100420.34;112445;1203;137673;-67
2021/10/02 20:39:54;;;;;;;25.70;18.70;;;;;;;13.15;76.34;100413.11;112564;1188;108479;-67
2021/10/02 20:42:43;;;;;;;25.30;17.90;;;;;;;13.12;76.41;100411.48;112366;1203;137811;-67
2021/10/02 20:45:34;;;;;;;25.90;17.90;;;;;;;13.09;76.54;100407.92;112447;1203;94807;-68
2021/10/02 20:48:20;;;;;;;21.90;18.30;;;;;;;13.05;76.48;100405.27;112456;1202;139170;-66
2021/10/02 20:51:10;;;;;;;25.90;18.10;;;;;;;13.00;76.68;100403.56;112457;1202;107943;-65
2021/10/02 20:53:57;;;;;;;23.90;17.40;;;;;;;12.96;76.82;100405.81;112516;1203;108604;-65
2021/10/02 20:56:44;;;;;;;22.00;17.90;;;;;;;12.95;76.98;100404.13;112424;1203;137482;-65
2021/10/02 20:59:31;;;;;;;24.00;19.00;;;;;;;12.92;76.69;100405.77;112451;1203;94887;-66
2021/10/02 21:02:25;;;;;;;24.80;18.60;;;;;;;12.89;76.85;100406.26;112397;1203;138082;-65
2021/10/02 21:05:13;;;;;;;24.40;18.60;;;;;;;12.86;76.93;100402.02;113025;1203;108912;-66
2021/10/02 21:08:03;;;;;;;26.00;19.10;;;;;;;12.83;77.18;100400.54;112489;1203;137744;-67
2021/10/02 21:10:50;;;;;;;26.30;18.60;;;;;;;12.81;77.16;100396.48;113855;1203;93204;-67
2021/10/02 21:13:37;;;;;;;25.80;18.30;;;;;;;12.79;77.17;100394.46;113804;1203;138578;-66
2021/10/02 21:16:25;;;;;;;22.90;18.10;;;;;;;12.78;77.35;100392.60;113728;1203;109557;-67
2021/10/02 21:19:12;;;;;;;24.70;18.90;;;;;;;12.76;77.49;100389.36;112520;1203;137903;-67
2021/10/02 21:21:59;;;;;;;25.90;17.30;;;;;;;12.73;77.71;100384.54;112555;1203;108549;-65
2021/10/02 21:24:50;;;;;;;27.70;18.10;;;;;;;12.72;77.53;100383.89;112261;1203;138230;-67
2021/10/02 21:27:38;;;;;;;26.20;19.20;;;;;;;12.70;77.68;100378.38;113906;1203;94087;-65
2021/10/02 21:30:26;;;;;;;23.70;18.20;;;;;;;12.66;77.76;100376.95;113779;1203;138530;-66
2021/10/02 21:33:14;;;;;;;25.00;17.70;;;;;;;12.63;77.90;100374.29;113773;1203;108633;-65
2021/10/02 21:36:02;;;;;;;23.20;18.30;;;;;;;12.63;78.00;100370.48;112741;1203;108673;-66
2021/10/02 21:38:51;;;;;;;27.90;18.60;;;;;;;12.62;78.03;100364.40;113707;1203;137298;-67
2021/10/02 21:41:40;;;;;;;22.20;16.30;;;;;;;12.60;78.15;100369.17;113834;1203;94107;-68
2021/10/02 21:44:28;;;;;;;24.50;18.30;;;;;;;12.59;78.20;100374.99;112372;1203;137938;-68
2021/10/02 21:47:14;;;;;;;23.20;17.90;;;;;;;12.58;78.21;100376.26;113042;1203;107573;-68
2021/10/02 21:50:02;;;;;;;25.30;18.40;;;;;;;12.56;78.36;100374.90;113654;1203;138710;-67
2021/10/02 21:52:54;;;;;;;24.80;17.40;;;;;;;12.54;78.26;100378.66;113907;1203;93039;-67
2021/10/02 21:55:43;;;;;;;24.50;18.20;;;;;;;12.53;78.18;100380.59;112728;1203;138337;-67
2021/10/02 21:58:30;;;;;;;23.50;18.20;;;;;;;12.51;78.16;100379.64;113925;1203;109551;-67
2021/10/02 22:01:40;;;;;;;23.20;17.70;;;;;;;12.50;78.21;100385.23;113225;1203;138510;-66
2021/10/02 22:04:28;;;;;;;24.50;18.60;;;;;;;12.49;78.46;100392.95;112488;1203;108949;-66
2021/10/02 22:07:16;;;;;;;23.50;18.50;;;;;;;12.49;78.41;100384.78;113794;1203;137614;-67
2021/10/02 22:10:03;;;;;;;;;;;;;;;12.46;78.40;100385.27;113840;1202;94113;-67
2021/10/02 22:12:49;;;;;;;22.40;16.50;;;;;;;12.41;78.42;100387.73;113741;1202;125490;-64
2021/10/02 22:15:36;;;;;;;22.30;17.30;;;;;;;12.39;78.58;100389.54;113877;1203;109192;-67
2021/10/02 22:18:26;;;;;;;23.70;18.60;;;;;;;12.35;78.57;100391.38;112453;1203;108607;-67
2021/10/02 22:21:14;;;;;;;23.90;17.70;;;;;;;12.32;78.62;100393.58;112524;1203;94818;-67
2021/10/02 22:24:05;;;;;;;24.10;18.10;;;;;;;12.31;78.65;100391.73;112917;1203;95183;-68
2021/10/02 22:26:58;;;;;;;24.50;19.20;;;;;;;12.28;78.75;100396.17;112429;1203;138131;-67
2021/10/02 22:29:45;;;;;;;25.10;18.40;;;;;;;12.26;78.77;100395.23;113923;1203;107680;-65
2021/10/02 22:32:32;;;;;;;23.00;17.00;;;;;;;12.23;78.72;100394.85;113775;1203;138058;-66
2021/10/02 22:35:21;;;;;;;26.20;18.80;;;;;;;12.20;78.92;100396.14;113858;1203;92942;-66
2021/10/02 22:38:08;;;;;;;31.20;20.20;;;;;;;12.19;78.93;100401.05;113763;1202;139022;-65
2021/10/02 22:40:55;;;;;;;24.70;18.60;;;;;;;12.17;78.92;100408.27;113929;1203;108541;-66
2021/10/02 22:43:42;;;;;;;28.40;18.50;;;;;;;12.16;78.96;100406.41;112530;1203;138455;-67
2021/10/02 22:46:31;;;;;;;25.20;18.00;;;;;;;12.13;78.95;100412.27;112694;1203;107443;-66
2021/10/02 22:49:21;;;;;;;30.70;20.60;;;;;;;12.10;79.01;100416.36;112475;1203;137705;-65
2021/10/02 22:52:08;;;;;;;24.60;19.20;;;;;;;12.09;79.17;100417.47;112494;1203;94993;-65
2021/10/02 22:54:56;;;;;;;24.10;18.90;;;;;;;12.06;79.24;100422.81;112482;1203;138316;-67
2021/10/02 22:57:43;;;;;;;32.30;20.00;;;;;;;12.01;79.30;100415.98;112650;1203;109057;-64
2021/10/02 23:00:31;;;;;;;26.40;18.60;;;;;;;11.98;79.54;100412.27;112482;1203;108611;-67
2021/10/02 23:03:19;;;;;;;25.50;18.60;;;;;;;11.93;79.34;100409.30;113817;1202;137876;-65
2021/10/02 23:06:05;;;;;;;;;;;;;;;11.91;79.54;100407.49;113836;1203;93102;-66
2021/10/02 23:08:53;;;;;;;26.60;20.00;;;;;;;11.87;79.59;100404.13;113768;1203;123905;-66
2021/10/02 23:11:40;;;;;;;;;;;;;;;11.83;79.73;100407.20;113968;1203;110022;-66
2021/10/02 23:14:27;;;;;;;23.30;18.20;;;;;;;11.80;79.95;100408.70;113785;1203;124274;-66
2021/10/02 23:17:20;;;;;;;27.50;21.20;;;;;;;11.79;80.08;100407.54;113497;1202;94892;-65
2021/10/02 23:20:10;;;;;;;28.70;18.80;;;;;;;11.77;79.99;100407.07;112438;1193;137499;-65
2021/10/02 23:23:00;;;;;;;23.80;17.50;;;;;;;11.73;80.09;100412.23;112582;1203;109108;-65
2021/10/02 23:25:50;;;;;;;26.10;19.70;;;;;;;11.70;80.11;100413.91;112531;1203;139484;-67
2021/10/02 23:28:40;;;;;;;25.70;19.00;;;;;;;11.68;80.27;100411.73;112500;1203;108519;-66
2021/10/02 23:31:29;;;;;;;25.60;18.30;;;;;;;11.64;80.63;100409.74;112717;1203;138145;-67
2021/10/02 23:34:16;;;;;;;27.10;19.40;;;;;;;11.61;80.50;100409.00;112553;1203;96388;-65
2021/10/02 23:37:05;;;;;;;24.80;20.10;;;;;;;11.58;80.56;100408.42;112408;1203;138013;-67
2021/10/02 23:39:52;;;;;;;27.30;19.50;;;;;;;11.54;80.52;100413.95;112674;1202;108582;-65
2021/10/02 23:42:41;;;;;;;23.50;18.50;;;;;;;11.50;80.58;100415.98;113910;1203;108644;-65
2021/10/02 23:45:28;;;;;;;30.20;19.30;;;;;;;11.45;80.93;100421.19;113819;1203;140036;-65
2021/10/02 23:48:15;;;;;;;29.20;21.00;;;;;;;11.43;81.13;100428.20;113209;1203;96246;-65
2021/10/02 23:51:05;;;;;;;25.80;19.70;;;;;;;11.41;81.16;100427.41;112420;1203;138603;-66
2021/10/02 23:54:07;;;;;;;24.10;18.50;;;;;;;11.38;81.26;100426.63;113446;1203;108660;-64
2021/10/02 23:56:58;;;;;;;27.30;18.40;;;;;;;11.37;81.18;100426.87;112405;1203;138268;-64
2021/10/02 23:59:44;;;;;;;26.80;19.80;;;;;;;11.35;81.22;100426.05;112537;1203;96223;-66
